sensor_id;sensor_type;location;lat;lon;timestamp;pressure;altitude;pressure_sealevel;temperature;humidity
26657;BME280;14279;50.010;8.260;2023-07-28T00:02:04;99630.84;;;18.07;100.00
26657;BME280;14279;50.010;8.260;2023-07-28T00:04:29;99636.69;;;18.01;100.00
26657;BME280;14279;50.010;8.260;2023-07-28T00:06:55;99628.06;;;17.99;100.00
26657;BME280;14279;50.010;8.260;2023-07-28T00:09:20;99625.53;;;17.97;100.00
26657;BME280;14279;50.010;8.260;2023-07-28T00:11:45;99622.38;;;18.03;100.00
26657;BME280;14279;50.010;8.260;2023-07-28T00:14:11;99618.09;;;18.02;100.00
26657;BME280;14279;50.010;8.260;2023-07-28T00:16:36;99623.09;;;18.06;100.00
26657;BME280;14279;50.010;8.260;2023-07-28T00:19:02;99620.19;;;17.99;100.00
26657;BME280;14279;50.010;8.260;2023-07-28T00:21:27;99610.72;;;18.06;100.00
26657;BME280;14279;50.010;8.260;2023-07-28T00:23:53;99604.75;;;17.94;100.00
26657;BME280;14279;50.010;8.260;2023-07-28T00:26:18;99612.50;;;17.96;100.00
26657;BME280;14279;50.010;8.260;2023-07-28T00:28:43;99608.78;;;17.98;100.00
26657;BME280;14279;50.010;8.260;2023-07-28T00:31:09;99601.41;;;17.82;100.00
26657;BME280;14279;50.010;8.260;2023-07-28T00:33:34;99601.72;;;17.89;100.00
26657;BME280;14279;50.010;8.260;2023-07-28T00:35:59;99606.69;;;17.92;100.00
26657;BME280;14279;50.010;8.260;2023-07-28T00:38:25;99602.81;;;17.96;100.00
26657;BME280;14279;50.010;8.260;2023-07-28T00:40:50;99597.84;;;17.93;100.00
26657;BME280;14279;50.010;8.260;2023-07-28T00:43:15;99591.75;;;18.02;100.00
26657;BME280;14279;50.010;8.260;2023-07-28T00:45:40;99595.34;;;18.01;100.00
26657;BME280;14279;50.010;8.260;2023-07-28T00:48:10;99589.13;;;18.02;100.00
26657;BME280;14279;50.010;8.260;2023-07-28T00:50:37;99593.31;;;18.15;100.00
26657;BME280;14279;50.010;8.260;2023-07-28T00:53:03;99593.31;;;18.15;100.00
26657;BME280;14279;50.010;8.260;2023-07-28T00:55:28;99604.38;;;18.18;100.00
26657;BME280;14279;50.010;8.260;2023-07-28T00:57:53;99600.22;;;18.16;100.00
26657;BME280;14279;50.010;8.260;2023-07-28T01:00:18;99587.59;;;18.20;100.00
26657;BME280;14279;50.010;8.260;2023-07-28T01:02:44;99583.47;;;18.17;100.00
26657;BME280;14279;50.010;8.260;2023-07-28T01:05:09;99598.13;;;18.20;100.00
26657;BME280;14279;50.010;8.260;2023-07-28T01:10:08;99594.25;;;18.24;100.00
26657;BME280;14279;50.010;8.260;2023-07-28T01:12:35;99595.09;;;18.24;100.00
26657;BME280;14279;50.010;8.260;2023-07-28T01:15:00;99595.94;;;18.25;100.00
26657;BME280;14279;50.010;8.260;2023-07-28T01:17:26;99591.47;;;18.25;100.00
26657;BME280;14279;50.010;8.260;2023-07-28T01:19:52;99592.88;;;18.29;100.00
26657;BME280;14279;50.010;8.260;2023-07-28T01:22:54;99606.03;;;18.29;100.00
26657;BME280;14279;50.010;8.260;2023-07-28T01:25:32;99597.97;;;18.31;100.00
26657;BME280;14279;50.010;8.260;2023-07-28T01:28:01;99607.44;;;18.24;100.00
26657;BME280;14279;50.010;8.260;2023-07-28T01:30:27;99603.56;;;18.28;100.00
26657;BME280;14279;50.010;8.260;2023-07-28T01:32:56;99597.28;;;18.19;100.00
26657;BME280;14279;50.010;8.260;2023-07-28T01:35:22;99593.41;;;18.23;100.00
26657;BME280;14279;50.010;8.260;2023-07-28T01:37:48;99594.53;;;18.21;100.00
26657;BME280;14279;50.010;8.260;2023-07-28T01:40:16;99600.34;;;18.24;100.00
26657;BME280;14279;50.010;8.260;2023-07-28T01:42:42;99594.25;;;18.24;100.00
26657;BME280;14279;50.010;8.260;2023-07-28T01:45:07;99587.59;;;18.20;100.00
26657;BME280;14279;50.010;8.260;2023-07-28T01:47:33;99589.28;;;18.11;100.00
26657;BME280;14279;50.010;8.260;2023-07-28T01:49:58;99594.66;;;18.09;100.00
26657;BME280;14279;50.010;8.260;2023-07-28T01:52:23;99593.13;;;17.97;100.00
26657;BME280;14279;50.010;8.260;2023-07-28T01:54:49;99593.13;;;17.97;100.00
26657;BME280;14279;50.010;8.260;2023-07-28T01:57:15;99599.75;;;17.81;100.00
26657;BME280;14279;50.010;8.260;2023-07-28T01:59:40;99596.97;;;17.83;100.00
26657;BME280;14279;50.010;8.260;2023-07-28T02:02:06;99593.66;;;17.81;100.00
26657;BME280;14279;50.010;8.260;2023-07-28T02:04:31;99594.34;;;17.83;100.00
26657;BME280;14279;50.010;8.260;2023-07-28T02:06:56;99596.84;;;17.84;100.00
26657;BME280;14279;50.010;8.260;2023-07-28T02:09:21;99600.31;;;17.85;100.00
26657;BME280;14279;50.010;8.260;2023-07-28T02:11:47;99602.53;;;17.90;100.00
26657;BME280;14279;50.010;8.260;2023-07-28T02:14:12;99599.34;;;17.86;100.00
26657;BME280;14279;50.010;8.260;2023-07-28T02:16:37;99598.09;;;17.90;100.00
26657;BME280;14279;50.010;8.260;2023-07-28T02:19:02;99598.66;;;17.84;100.00
26657;BME280;14279;50.010;8.260;2023-07-28T02:21:28;99596.13;;;17.82;100.00
26657;BME280;14279;50.010;8.260;2023-07-28T02:23:53;99595.03;;;17.85;100.00
26657;BME280;14279;50.010;8.260;2023-07-28T02:26:18;99592.84;;;17.80;100.00
26657;BME280;14279;50.010;8.260;2023-07-28T02:28:43;99596.72;;;17.86;100.00
26657;BME280;14279;50.010;8.260;2023-07-28T02:31:08;99591.88;;;17.91;100.00
26657;BME280;14279;50.010;8.260;2023-07-28T02:33:34;99593.53;;;17.92;100.00
26657;BME280;14279;50.010;8.260;2023-07-28T02:36:02;99592.88;;;18.00;100.00
26657;BME280;14279;50.010;8.260;2023-07-28T02:38:27;99592.69;;;17.92;100.00
26657;BME280;14279;50.010;8.260;2023-07-28T02:40:52;99585.22;;;17.87;100.00
26657;BME280;14279;50.010;8.260;2023-07-28T02:43:18;99587.56;;;17.90;100.00
26657;BME280;14279;50.010;8.260;2023-07-28T02:45:43;99584.09;;;17.80;100.00
26657;BME280;14279;50.010;8.260;2023-07-28T02:48:08;99584.94;;;17.80;100.00
26657;BME280;14279;50.010;8.260;2023-07-28T02:50:34;99587.16;;;17.85;100.00
26657;BME280;14279;50.010;8.260;2023-07-28T02:52:59;99580.63;;;17.79;100.00
26657;BME280;14279;50.010;8.260;2023-07-28T02:55:24;99587.28;;;17.83;100.00
26657;BME280;14279;50.010;8.260;2023-07-28T02:57:49;99580.34;;;17.82;100.00
26657;BME280;14279;50.010;8.260;2023-07-28T03:00:14;99590.06;;;17.82;100.00
26657;BME280;14279;50.010;8.260;2023-07-28T03:02:40;99587.41;;;17.82;100.00
26657;BME280;14279;50.010;8.260;2023-07-28T03:05:05;99588.66;;;17.78;100.00
26657;BME280;14279;50.010;8.260;2023-07-28T03:07:31;99581.88;;;17.85;100.00
26657;BME280;14279;50.010;8.260;2023-07-28T03:09:56;99581.34;;;17.91;100.00
26657;BME280;14279;50.010;8.260;2023-07-28T03:12:21;99585.34;;;17.95;100.00
26657;BME280;14279;50.010;8.260;2023-07-28T03:14:46;99585.22;;;17.97;100.00
26657;BME280;14279;50.010;8.260;2023-07-28T03:17:12;99590.47;;;17.97;100.00
26657;BME280;14279;50.010;8.260;2023-07-28T03:19:37;99592.56;;;17.93;100.00
26657;BME280;14279;50.010;8.260;2023-07-28T03:22:02;99590.91;;;17.92;100.00
26657;BME280;14279;50.010;8.260;2023-07-28T03:24:27;99597.13;;;17.91;100.00
26657;BME280;14279;50.010;8.260;2023-07-28T03:26:53;99593.94;;;17.87;100.00
26657;BME280;14279;50.010;8.260;2023-07-28T03:29:18;99597.94;;;17.82;100.00
26657;BME280;14279;50.010;8.260;2023-07-28T03:31:43;99596.72;;;17.86;100.00
26657;BME280;14279;50.010;8.260;2023-07-28T03:34:08;99599.47;;;17.94;100.00
26657;BME280;14279;50.010;8.260;2023-07-28T03:36:34;99593.13;;;17.97;100.00
26657;BME280;14279;50.010;8.260;2023-07-28T03:38:59;99597.84;;;17.93;100.00
26657;BME280;14279;50.010;8.260;2023-07-28T03:41:24;99595.78;;;18.07;100.00
26657;BME280;14279;50.010;8.260;2023-07-28T03:43:49;99591.34;;;18.07;100.00
26657;BME280;14279;50.010;8.260;2023-07-28T03:46:15;99590.09;;;18.11;100.00
26657;BME280;14279;50.010;8.260;2023-07-28T03:48:40;99592.44;;;18.14;100.00
26657;BME280;14279;50.010;8.260;2023-07-28T03:51:05;99591.06;;;18.20;100.00
26657;BME280;14279;50.010;8.260;2023-07-28T03:53:30;99598.00;;;18.21;100.00
26657;BME280;14279;50.010;8.260;2023-07-28T03:55:55;99597.88;;;18.23;100.00
26657;BME280;14279;50.010;8.260;2023-07-28T03:58:24;99600.34;;;18.24;100.00
26657;BME280;14279;50.010;8.260;2023-07-28T04:00:50;99598.00;;;18.21;100.00
26657;BME280;14279;50.010;8.260;2023-07-28T04:03:16;99602.59;;;18.29;100.00
26657;BME280;14279;50.010;8.260;2023-07-28T04:05:41;99597.59;;;18.26;100.00
26657;BME280;14279;50.010;8.260;2023-07-28T04:08:06;99602.16;;;18.24;100.00
26657;BME280;14279;50.010;8.260;2023-07-28T04:10:31;99603.81;;;18.35;100.00
26657;BME280;14279;50.010;8.260;2023-07-28T04:12:57;99608.66;;;18.29;100.00
26657;BME280;14279;50.010;8.260;2023-07-28T04:15:22;99601.31;;;18.23;100.00
26657;BME280;14279;50.010;8.260;2023-07-28T04:17:47;99611.84;;;18.33;100.00
26657;BME280;14279;50.010;8.260;2023-07-28T04:20:12;99609.50;;;18.20;100.00
26657;BME280;14279;50.010;8.260;2023-07-28T04:22:37;99613.41;;;18.26;100.00
26657;BME280;14279;50.010;8.260;2023-07-28T04:25:03;99615.59;;;18.21;100.00
26657;BME280;14279;50.010;8.260;2023-07-28T04:27:28;99619.63;;;18.35;100.00
26657;BME280;14279;50.010;8.260;2023-07-28T04:29:53;99631.56;;;18.39;100.00
26657;BME280;14279;50.010;8.260;2023-07-28T04:32:19;99625.31;;;18.40;100.00
26657;BME280;14279;50.010;8.260;2023-07-28T04:34:44;99626.97;;;18.41;100.00
26657;BME280;14279;50.010;8.260;2023-07-28T04:37:09;99628.34;;;18.45;100.00
26657;BME280;14279;50.010;8.260;2023-07-28T04:39:34;99636.25;;;18.45;100.00
26657;BME280;14279;50.010;8.260;2023-07-28T04:41:59;99636.66;;;18.50;100.00
26657;BME280;14279;50.010;8.260;2023-07-28T04:44:25;99631.66;;;18.57;100.00
26657;BME280;14279;50.010;8.260;2023-07-28T04:46:50;99631.66;;;18.57;100.00
26657;BME280;14279;50.010;8.260;2023-07-28T04:49:16;99634.19;;;18.48;100.00
26657;BME280;14279;50.010;8.260;2023-07-28T04:51:41;99639.59;;;18.27;100.00
26657;BME280;14279;50.010;8.260;2023-07-28T04:54:06;99642.75;;;18.21;100.00
26657;BME280;14279;50.010;8.260;2023-07-28T04:56:31;99633.91;;;18.22;100.00
26657;BME280;14279;50.010;8.260;2023-07-28T04:58:56;99638.63;;;18.38;100.00
26657;BME280;14279;50.010;8.260;2023-07-28T05:01:24;99640.56;;;18.36;100.00
26657;BME280;14279;50.010;8.260;2023-07-28T05:03:49;99651.38;;;18.62;100.00
26657;BME280;14279;50.010;8.260;2023-07-28T05:06:14;99645.13;;;18.63;100.00
26657;BME280;14279;50.010;8.260;2023-07-28T05:08:39;99646.22;;;18.71;100.00
26657;BME280;14279;50.010;8.260;2023-07-28T05:11:05;99657.59;;;18.71;100.00
26657;BME280;14279;50.010;8.260;2023-07-28T05:13:30;99650.78;;;18.69;100.00
26657;BME280;14279;50.010;8.260;2023-07-28T05:15:55;99654.09;;;18.81;100.00
26657;BME280;14279;50.010;8.260;2023-07-28T05:18:20;99650.09;;;18.86;100.00
26657;BME280;14279;50.010;8.260;2023-07-28T05:20:46;99655.63;;;18.93;100.00
26657;BME280;14279;50.010;8.260;2023-07-28T05:23:11;99664.50;;;19.02;100.00
26657;BME280;14279;50.010;8.260;2023-07-28T05:25:36;99656.81;;;19.18;100.00
26657;BME280;14279;50.010;8.260;2023-07-28T05:28:01;99660.59;;;19.16;100.00
26657;BME280;14279;50.010;8.260;2023-07-28T05:30:26;99655.13;;;19.27;100.00
26657;BME280;14279;50.010;8.260;2023-07-28T05:32:54;99653.72;;;19.33;99.74
26657;BME280;14279;50.010;8.260;2023-07-28T05:35:19;99652.38;;;19.19;99.14
26657;BME280;14279;50.010;8.260;2023-07-28T05:37:45;99657.34;;;19.32;98.30
26657;BME280;14279;50.010;8.260;2023-07-28T05:40:12;99657.81;;;19.45;97.48
26657;BME280;14279;50.010;8.260;2023-07-28T05:42:37;99646.06;;;19.40;95.88
26657;BME280;14279;50.010;8.260;2023-07-28T05:45:03;99650.13;;;19.62;95.58
26657;BME280;14279;50.010;8.260;2023-07-28T05:47:29;99656.78;;;19.84;93.73
26657;BME280;14279;50.010;8.260;2023-07-28T05:49:55;99653.34;;;19.83;93.12
26657;BME280;14279;50.010;8.260;2023-07-28T05:52:22;99650.28;;;19.88;92.15
26657;BME280;14279;50.010;8.260;2023-07-28T05:54:48;99652.53;;;20.01;90.79
26657;BME280;14279;50.010;8.260;2023-07-28T05:57:13;99657.69;;;20.21;89.62
26657;BME280;14279;50.010;8.260;2023-07-28T05:59:39;99651.88;;;20.17;89.18
26657;BME280;14279;50.010;8.260;2023-07-28T06:05:20;99659.94;;;20.16;91.91
26657;BME280;14279;50.010;8.260;2023-07-28T06:07:46;99659.88;;;20.07;92.52
26657;BME280;14279;50.010;8.260;2023-07-28T06:10:11;99656.63;;;20.13;92.09
26657;BME280;14279;50.010;8.260;2023-07-28T06:12:38;99659.09;;;19.97;92.88
26657;BME280;14279;50.010;8.260;2023-07-28T06:15:04;99658.59;;;19.93;92.91
26657;BME280;14279;50.010;8.260;2023-07-28T06:17:36;99665.22;;;20.16;91.03
26657;BME280;14279;50.010;8.260;2023-07-28T06:20:43;99666.44;;;20.03;93.29
26657;BME280;14279;50.010;8.260;2023-07-28T06:23:09;99673.84;;;20.18;92.06
26657;BME280;14279;50.010;8.260;2023-07-28T06:25:35;99672.25;;;20.25;90.92
26657;BME280;14279;50.010;8.260;2023-07-28T06:28:01;99673.81;;;20.00;92.32
26657;BME280;14279;50.010;8.260;2023-07-28T06:30:29;99669.75;;;20.23;90.99
26657;BME280;14279;50.010;8.260;2023-07-28T06:32:55;99678.91;;;20.29;92.20
26657;BME280;14279;50.010;8.260;2023-07-28T06:35:33;99678.63;;;20.32;91.28
26657;BME280;14279;50.010;8.260;2023-07-28T06:37:59;99683.56;;;20.35;91.23
26657;BME280;14279;50.010;8.260;2023-07-28T06:40:25;99686.16;;;20.45;91.66
26657;BME280;14279;50.010;8.260;2023-07-28T06:42:50;99675.84;;;20.60;90.71
26657;BME280;14279;50.010;8.260;2023-07-28T06:45:16;99682.06;;;20.69;90.48
26657;BME280;14279;50.010;8.260;2023-07-28T06:47:41;99676.75;;;20.87;88.51
26657;BME280;14279;50.010;8.260;2023-07-28T06:50:07;99681.84;;;20.80;89.50
26657;BME280;14279;50.010;8.260;2023-07-28T06:52:32;99671.88;;;20.56;87.23
26657;BME280;14279;50.010;8.260;2023-07-28T06:54:57;99683.28;;;21.01;87.81
26657;BME280;14279;50.010;8.260;2023-07-28T06:57:23;99687.47;;;21.04;87.25
26657;BME280;14279;50.010;8.260;2023-07-28T06:59:49;99685.22;;;21.17;85.92
26657;BME280;14279;50.010;8.260;2023-07-28T07:02:15;99692.78;;;21.12;86.54
26657;BME280;14279;50.010;8.260;2023-07-28T07:08:03;99697.13;;;20.95;85.74
26657;BME280;14279;50.010;8.260;2023-07-28T07:10:30;99700.78;;;20.76;84.34
26657;BME280;14279;50.010;8.260;2023-07-28T07:12:56;99692.69;;;20.95;84.25
26657;BME280;14279;50.010;8.260;2023-07-28T07:15:22;99694.66;;;20.93;84.51
26657;BME280;14279;50.010;8.260;2023-07-28T07:18:06;99700.22;;;20.82;82.97
26657;BME280;14279;50.010;8.260;2023-07-28T07:20:36;99712.81;;;20.52;85.02
26657;BME280;14279;50.010;8.260;2023-07-28T07:23:03;99715.81;;;20.75;85.37
26657;BME280;14279;50.010;8.260;2023-07-28T07:25:37;99729.25;;;21.00;83.97
26657;BME280;14279;50.010;8.260;2023-07-28T07:28:03;99718.56;;;20.83;84.59
26657;BME280;14279;50.010;8.260;2023-07-28T07:30:33;99722.16;;;21.00;84.11
26657;BME280;14279;50.010;8.260;2023-07-28T07:32:58;99722.78;;;20.76;84.26
26657;BME280;14279;50.010;8.260;2023-07-28T07:35:23;99721.13;;;20.93;83.40
26657;BME280;14279;50.010;8.260;2023-07-28T07:37:49;99721.88;;;20.85;84.04
26657;BME280;14279;50.010;8.260;2023-07-28T07:40:14;99737.75;;;21.04;84.36
26657;BME280;14279;50.010;8.260;2023-07-28T07:42:45;99738.25;;;21.07;82.69
26657;BME280;14279;50.010;8.260;2023-07-28T07:45:11;99733.44;;;21.02;82.40
26657;BME280;14279;50.010;8.260;2023-07-28T07:47:36;99742.72;;;21.33;82.00
26657;BME280;14279;50.010;8.260;2023-07-28T07:50:02;99743.66;;;21.50;81.50
26657;BME280;14279;50.010;8.260;2023-07-28T07:52:28;99743.34;;;21.53;82.13
26657;BME280;14279;50.010;8.260;2023-07-28T07:54:53;99745.94;;;21.19;82.00
26657;BME280;14279;50.010;8.260;2023-07-28T07:57:18;99748.53;;;21.37;80.66
26657;BME280;14279;50.010;8.260;2023-07-28T07:59:43;99745.06;;;21.62;79.98
26657;BME280;14279;50.010;8.260;2023-07-28T08:02:09;99760.47;;;21.67;79.26
26657;BME280;14279;50.010;8.260;2023-07-28T08:04:34;99751.53;;;21.42;80.82
26657;BME280;14279;50.010;8.260;2023-07-28T08:07:01;99748.53;;;21.37;80.41
26657;BME280;14279;50.010;8.260;2023-07-28T08:09:26;99745.63;;;21.22;81.71
26657;BME280;14279;50.010;8.260;2023-07-28T08:11:52;99735.81;;;21.14;82.03
26657;BME280;14279;50.010;8.260;2023-07-28T08:14:18;99747.34;;;21.31;80.93
26657;BME280;14279;50.010;8.260;2023-07-28T08:16:43;99748.41;;;21.46;80.76
26657;BME280;14279;50.010;8.260;2023-07-28T08:19:08;99748.06;;;21.68;78.23
26657;BME280;14279;50.010;8.260;2023-07-28T08:21:34;99747.72;;;21.44;78.73
26657;BME280;14279;50.010;8.260;2023-07-28T08:24:02;99748.81;;;21.60;78.72
26657;BME280;14279;50.010;8.260;2023-07-28T08:26:29;99744.53;;;21.94;78.00
26657;BME280;14279;50.010;8.260;2023-07-28T08:28:54;99747.22;;;22.02;76.40
26657;BME280;14279;50.010;8.260;2023-07-28T08:31:19;99741.50;;;22.31;75.51
26657;BME280;14279;50.010;8.260;2023-07-28T08:33:44;99749.00;;;22.61;75.15
26657;BME280;14279;50.010;8.260;2023-07-28T08:36:10;99753.47;;;22.52;72.72
26657;BME280;14279;50.010;8.260;2023-07-28T08:38:35;99747.53;;;22.75;72.47
26657;BME280;14279;50.010;8.260;2023-07-28T08:41:00;99763.13;;;22.78;71.98
26657;BME280;14279;50.010;8.260;2023-07-28T08:43:25;99768.22;;;21.95;73.74
26657;BME280;14279;50.010;8.260;2023-07-28T08:45:52;99759.16;;;21.71;74.19
26657;BME280;14279;50.010;8.260;2023-07-28T08:48:18;99754.81;;;21.97;74.68
26657;BME280;14279;50.010;8.260;2023-07-28T08:50:44;99751.63;;;21.93;74.48
26657;BME280;14279;50.010;8.260;2023-07-28T08:53:09;99746.88;;;22.05;74.46
26657;BME280;14279;50.010;8.260;2023-07-28T08:55:35;99747.16;;;22.36;73.07
26657;BME280;14279;50.010;8.260;2023-07-28T08:58:21;99771.03;;;21.94;73.46
26657;BME280;14279;50.010;8.260;2023-07-28T09:00:48;99763.31;;;22.17;72.92
26657;BME280;14279;50.010;8.260;2023-07-28T09:03:17;99762.47;;;22.08;73.27
26657;BME280;14279;50.010;8.260;2023-07-28T09:05:44;99780.44;;;21.88;73.55
26657;BME280;14279;50.010;8.260;2023-07-28T09:08:12;99773.44;;;22.30;73.51
26657;BME280;14279;50.010;8.260;2023-07-28T09:10:48;99773.31;;;22.31;73.02
26657;BME280;14279;50.010;8.260;2023-07-28T09:13:15;99767.13;;;22.82;71.76
26657;BME280;14279;50.010;8.260;2023-07-28T09:15:40;99769.91;;;23.38;70.11
26657;BME280;14279;50.010;8.260;2023-07-28T09:18:16;99766.34;;;23.63;68.65
26657;BME280;14279;50.010;8.260;2023-07-28T09:20:43;99767.44;;;22.95;69.96
26657;BME280;14279;50.010;8.260;2023-07-28T09:23:09;99763.78;;;22.96;70.42
26657;BME280;14279;50.010;8.260;2023-07-28T09:25:36;99760.63;;;22.85;69.86
26657;BME280;14279;50.010;8.260;2023-07-28T09:28:04;99770.09;;;22.79;70.27
26657;BME280;14279;50.010;8.260;2023-07-28T09:31:04;99762.78;;;22.73;70.43
26657;BME280;14279;50.010;8.260;2023-07-28T09:33:30;99770.25;;;22.77;70.42
26657;BME280;14279;50.010;8.260;2023-07-28T09:35:56;99765.59;;;23.04;69.01
26657;BME280;14279;50.010;8.260;2023-07-28T09:38:24;99769.75;;;22.74;68.37
26657;BME280;14279;50.010;8.260;2023-07-28T09:40:51;99771.25;;;22.93;68.67
26657;BME280;14279;50.010;8.260;2023-07-28T09:43:17;99766.59;;;23.03;68.69
26657;BME280;14279;50.010;8.260;2023-07-28T09:45:42;99760.63;;;23.09;69.04
26657;BME280;14279;50.010;8.260;2023-07-28T09:48:12;99768.09;;;23.06;68.75
26657;BME280;14279;50.010;8.260;2023-07-28T09:50:40;99760.47;;;23.27;68.27
26657;BME280;14279;50.010;8.260;2023-07-28T09:53:08;99774.28;;;23.79;67.53
26657;BME280;14279;50.010;8.260;2023-07-28T09:55:35;99761.25;;;23.93;66.09
26657;BME280;14279;50.010;8.260;2023-07-28T09:58:05;99762.81;;;23.79;66.45
26657;BME280;14279;50.010;8.260;2023-07-28T10:00:33;99767.28;;;24.26;65.61
26657;BME280;14279;50.010;8.260;2023-07-28T10:03:00;99762.31;;;24.23;65.93
26657;BME280;14279;50.010;8.260;2023-07-28T10:05:26;99759.38;;;24.88;64.03
26657;BME280;14279;50.010;8.260;2023-07-28T10:07:53;99765.84;;;24.15;65.04
26657;BME280;14279;50.010;8.260;2023-07-28T10:10:19;99768.50;;;23.67;65.97
26657;BME280;14279;50.010;8.260;2023-07-28T10:12:52;99764.09;;;23.99;66.34
26657;BME280;14279;50.010;8.260;2023-07-28T10:15:19;99766.88;;;24.38;65.70
26657;BME280;14279;50.010;8.260;2023-07-28T10:17:51;99760.13;;;24.27;65.11
26657;BME280;14279;50.010;8.260;2023-07-28T10:22:53;99765.84;;;24.15;65.12
26657;BME280;14279;50.010;8.260;2023-07-28T10:25:25;99762.72;;;24.35;63.87
26657;BME280;14279;50.010;8.260;2023-07-28T10:27:50;99774.78;;;23.75;65.39
26657;BME280;14279;50.010;8.260;2023-07-28T10:30:16;99774.38;;;24.02;65.38
26657;BME280;14279;50.010;8.260;2023-07-28T10:32:47;99770.75;;;24.58;64.38
26657;BME280;14279;50.010;8.260;2023-07-28T10:37:45;99783.56;;;24.23;66.03
26657;BME280;14279;50.010;8.260;2023-07-28T10:40:28;99784.63;;;24.14;65.51
26657;BME280;14279;50.010;8.260;2023-07-28T10:42:55;99777.81;;;24.66;64.57
26657;BME280;14279;50.010;8.260;2023-07-28T10:45:26;99781.97;;;24.45;64.76
26657;BME280;14279;50.010;8.260;2023-07-28T10:47:52;99780.53;;;24.58;64.33
26657;BME280;14279;50.010;8.260;2023-07-28T10:50:20;99790.88;;;23.81;67.46
26657;BME280;14279;50.010;8.260;2023-07-28T10:52:46;99797.22;;;23.80;67.21
26657;BME280;14279;50.010;8.260;2023-07-28T10:55:19;99785.44;;;24.14;65.97
26657;BME280;14279;50.010;8.260;2023-07-28T10:57:49;99781.06;;;24.30;65.98
26657;BME280;14279;50.010;8.260;2023-07-28T11:00:16;99782.19;;;24.36;66.09
26657;BME280;14279;50.010;8.260;2023-07-28T11:02:43;99781.59;;;24.80;64.30
26657;BME280;14279;50.010;8.260;2023-07-28T11:05:21;99786.69;;;25.43;62.38
26657;BME280;14279;50.010;8.260;2023-07-28T11:07:51;99789.47;;;25.12;63.27
26657;BME280;14279;50.010;8.260;2023-07-28T11:10:18;99780.63;;;24.73;63.93
26657;BME280;14279;50.010;8.260;2023-07-28T11:12:45;99788.22;;;24.84;64.30
26657;BME280;14279;50.010;8.260;2023-07-28T11:15:12;99779.34;;;24.37;64.54
26657;BME280;14279;50.010;8.260;2023-07-28T11:17:39;99781.41;;;24.27;63.67
26657;BME280;14279;50.010;8.260;2023-07-28T11:20:25;99795.69;;;23.78;65.93
26657;BME280;14279;50.010;8.260;2023-07-28T11:22:59;99786.06;;;23.85;65.34
26657;BME280;14279;50.010;8.260;2023-07-28T11:25:28;99788.31;;;23.48;66.98
26657;BME280;14279;50.010;8.260;2023-07-28T11:27:55;99798.34;;;23.86;66.70
26657;BME280;14279;50.010;8.260;2023-07-28T11:30:21;99791.03;;;23.80;65.91
26657;BME280;14279;50.010;8.260;2023-07-28T11:32:49;99790.56;;;24.24;66.02
26657;BME280;14279;50.010;8.260;2023-07-28T11:35:16;99792.22;;;24.25;66.43
26657;BME280;14279;50.010;8.260;2023-07-28T11:37:46;99794.97;;;24.09;67.25
26657;BME280;14279;50.010;8.260;2023-07-28T11:40:14;99792.56;;;24.22;66.28
26657;BME280;14279;50.010;8.260;2023-07-28T11:42:44;99795.59;;;24.19;66.48
26657;BME280;14279;50.010;8.260;2023-07-28T11:45:10;99801.56;;;23.65;69.19
26657;BME280;14279;50.010;8.260;2023-07-28T11:47:37;99807.91;;;22.97;75.17
26657;BME280;14279;50.010;8.260;2023-07-28T11:50:02;99819.50;;;22.29;81.33
26657;BME280;14279;50.010;8.260;2023-07-28T11:52:35;99809.88;;;22.19;81.92
26657;BME280;14279;50.010;8.260;2023-07-28T11:55:02;99820.13;;;22.14;83.98
26657;BME280;14279;50.010;8.260;2023-07-28T11:57:29;99811.66;;;22.54;82.01
26657;BME280;14279;50.010;8.260;2023-07-28T11:59:56;99809.53;;;22.65;81.60
26657;BME280;14279;50.010;8.260;2023-07-28T12:02:29;99807.41;;;22.69;82.48
26657;BME280;14279;50.010;8.260;2023-07-28T12:04:55;99815.16;;;22.54;82.42
26657;BME280;14279;50.010;8.260;2023-07-28T12:07:30;99816.09;;;22.36;85.52
26657;BME280;14279;50.010;8.260;2023-07-28T12:09:56;99794.91;;;22.45;85.06
26657;BME280;14279;50.010;8.260;2023-07-28T12:12:26;99803.69;;;22.54;87.15
26657;BME280;14279;50.010;8.260;2023-07-28T12:14:52;99798.59;;;22.77;87.37
26657;BME280;14279;50.010;8.260;2023-07-28T12:17:18;99799.13;;;23.14;84.23
26657;BME280;14279;50.010;8.260;2023-07-28T12:20:04;99795.81;;;23.20;83.95
26657;BME280;14279;50.010;8.260;2023-07-28T12:22:42;99797.63;;;23.36;82.76
26657;BME280;14279;50.010;8.260;2023-07-28T12:25:09;99800.31;;;23.27;82.84
26657;BME280;14279;50.010;8.260;2023-07-28T12:27:34;99796.47;;;23.47;81.83
26657;BME280;14279;50.010;8.260;2023-07-28T12:30:03;99796.47;;;23.30;81.85
26657;BME280;14279;50.010;8.260;2023-07-28T12:32:28;99802.25;;;23.42;79.11
26657;BME280;14279;50.010;8.260;2023-07-28T12:34:53;99798.28;;;22.96;77.31
26657;BME280;14279;50.010;8.260;2023-07-28T12:37:19;99799.78;;;22.99;77.97
26657;BME280;14279;50.010;8.260;2023-07-28T12:39:45;99805.59;;;23.11;76.10
26657;BME280;14279;50.010;8.260;2023-07-28T12:42:11;99814.84;;;22.74;81.26
26657;BME280;14279;50.010;8.260;2023-07-28T12:44:38;99813.53;;;22.61;83.25
26657;BME280;14279;50.010;8.260;2023-07-28T12:47:04;99811.94;;;22.42;85.92
26657;BME280;14279;50.010;8.260;2023-07-28T12:49:30;99810.72;;;22.20;83.14
26657;BME280;14279;50.010;8.260;2023-07-28T12:52:05;99806.44;;;22.27;81.74
26657;BME280;14279;50.010;8.260;2023-07-28T12:54:34;99810.00;;;22.44;81.42
26657;BME280;14279;50.010;8.260;2023-07-28T12:57:05;99810.72;;;22.79;80.64
26657;BME280;14279;50.010;8.260;2023-07-28T12:59:32;99808.56;;;22.83;80.33
26657;BME280;14279;50.010;8.260;2023-07-28T13:01:57;99812.06;;;23.08;79.57
26657;BME280;14279;50.010;8.260;2023-07-28T13:04:22;99812.59;;;23.29;78.51
26657;BME280;14279;50.010;8.260;2023-07-28T13:06:51;99829.00;;;23.24;79.47
26657;BME280;14279;50.010;8.260;2023-07-28T13:09:16;99812.91;;;22.33;83.22